Terminal Aerodrome Forecast
Issued by NWS

Home | Current Version | Previous Version | Text Only | Print | Product List | Glossary On
Versions: 1 2 3 4 5 6 7 8 9 10 11 12 13 14 15 16 17
000
FTUS46 KSEW 290520
TAFBFI
TAF
KBFI 290520Z 2906/3006 16006KT P6SM VCSH SCT020 OVC035
      TEMPO 2906/2910 OVC020
     FM291000 16005KT P6SM VCSH OVC018
     FM291900 29005KT P6SM BKN040
     FM292200 30007KT P6SM SCT040 BKN050
     FM300400 VRB04KT P6SM SCT040 SCT050=

USA.gov is the U.S. government's official web portal to all federal, state and local government web resources and services.